sensor_id;sensor_type;location;lat;lon;timestamp;temperature;humidity
46159;DHT22;31888;44.512;26.104;2023-05-10T00:01:28;8.80;99.90
46159;DHT22;31888;44.512;26.104;2023-05-10T00:03:52;8.80;99.90
46159;DHT22;31888;44.512;26.104;2023-05-10T00:06:17;8.70;99.90
46159;DHT22;31888;44.512;26.104;2023-05-10T00:08:44;8.70;99.90
46159;DHT22;31888;44.512;26.104;2023-05-10T00:11:09;8.70;99.90
46159;DHT22;31888;44.512;26.104;2023-05-10T00:13:33;8.60;99.90
46159;DHT22;31888;44.512;26.104;2023-05-10T00:15:58;8.50;99.90
46159;DHT22;31888;44.512;26.104;2023-05-10T00:18:22;8.50;99.90
46159;DHT22;31888;44.512;26.104;2023-05-10T00:20:47;8.40;99.90
46159;DHT22;31888;44.512;26.104;2023-05-10T00:23:11;8.40;99.90
46159;DHT22;31888;44.512;26.104;2023-05-10T00:25:37;8.30;99.90
46159;DHT22;31888;44.512;26.104;2023-05-10T00:28:01;8.30;99.90
46159;DHT22;31888;44.512;26.104;2023-05-10T00:30:26;8.40;99.90
46159;DHT22;31888;44.512;26.104;2023-05-10T00:32:50;8.30;99.90
46159;DHT22;31888;44.512;26.104;2023-05-10T00:35:15;8.30;99.90
46159;DHT22;31888;44.512;26.104;2023-05-10T00:37:39;8.30;99.90
46159;DHT22;31888;44.512;26.104;2023-05-10T00:40:05;8.30;99.90
46159;DHT22;31888;44.512;26.104;2023-05-10T00:42:31;8.30;99.90
46159;DHT22;31888;44.512;26.104;2023-05-10T00:44:55;8.20;99.90
46159;DHT22;31888;44.512;26.104;2023-05-10T00:47:20;8.20;99.90
46159;DHT22;31888;44.512;26.104;2023-05-10T00:49:45;8.20;99.90
46159;DHT22;31888;44.512;26.104;2023-05-10T00:52:10;8.20;99.90
46159;DHT22;31888;44.512;26.104;2023-05-10T00:54:34;8.20;99.90
46159;DHT22;31888;44.512;26.104;2023-05-10T00:56:59;8.10;99.90
46159;DHT22;31888;44.512;26.104;2023-05-10T00:59:26;8.10;99.90
46159;DHT22;31888;44.512;26.104;2023-05-10T01:01:51;8.10;99.90
46159;DHT22;31888;44.512;26.104;2023-05-10T01:04:16;8.10;99.90
46159;DHT22;31888;44.512;26.104;2023-05-10T01:06:41;8.10;99.90
46159;DHT22;31888;44.512;26.104;2023-05-10T01:09:05;8.20;99.90
46159;DHT22;31888;44.512;26.104;2023-05-10T01:11:30;8.20;99.90
46159;DHT22;31888;44.512;26.104;2023-05-10T01:13:56;8.20;99.90
46159;DHT22;31888;44.512;26.104;2023-05-10T01:16:22;8.30;99.90
46159;DHT22;31888;44.512;26.104;2023-05-10T01:18:48;8.40;99.90
46159;DHT22;31888;44.512;26.104;2023-05-10T01:21:19;8.40;99.90
46159;DHT22;31888;44.512;26.104;2023-05-10T01:27:20;8.40;99.90
46159;DHT22;31888;44.512;26.104;2023-05-10T01:29:52;8.40;99.90
46159;DHT22;31888;44.512;26.104;2023-05-10T01:32:43;8.40;99.90
46159;DHT22;31888;44.512;26.104;2023-05-10T01:35:15;8.40;99.90
46159;DHT22;31888;44.512;26.104;2023-05-10T01:37:45;8.40;99.90
46159;DHT22;31888;44.512;26.104;2023-05-10T01:40:19;8.40;99.90
46159;DHT22;31888;44.512;26.104;2023-05-10T01:42:49;8.40;99.90
46159;DHT22;31888;44.512;26.104;2023-05-10T01:45:22;8.40;99.90
46159;DHT22;31888;44.512;26.104;2023-05-10T01:47:58;8.50;99.90
46159;DHT22;31888;44.512;26.104;2023-05-10T01:50:27;8.50;99.90
46159;DHT22;31888;44.512;26.104;2023-05-10T01:52:55;8.50;99.90
46159;DHT22;31888;44.512;26.104;2023-05-10T01:55:21;8.50;99.90
46159;DHT22;31888;44.512;26.104;2023-05-10T01:57:51;8.50;99.90
46159;DHT22;31888;44.512;26.104;2023-05-10T02:00:19;8.50;99.90
46159;DHT22;31888;44.512;26.104;2023-05-10T02:02:48;8.40;99.90
46159;DHT22;31888;44.512;26.104;2023-05-10T02:05:16;8.50;99.90
46159;DHT22;31888;44.512;26.104;2023-05-10T02:07:41;8.50;99.90
46159;DHT22;31888;44.512;26.104;2023-05-10T02:10:08;8.50;99.90
46159;DHT22;31888;44.512;26.104;2023-05-10T02:12:35;8.60;99.90
46159;DHT22;31888;44.512;26.104;2023-05-10T02:15:02;8.60;99.90
46159;DHT22;31888;44.512;26.104;2023-05-10T02:17:29;8.60;99.90
46159;DHT22;31888;44.512;26.104;2023-05-10T02:19:55;8.50;99.90
46159;DHT22;31888;44.512;26.104;2023-05-10T02:22:22;8.50;99.90
46159;DHT22;31888;44.512;26.104;2023-05-10T02:24:49;8.50;99.90
46159;DHT22;31888;44.512;26.104;2023-05-10T02:27:14;8.50;99.90
46159;DHT22;31888;44.512;26.104;2023-05-10T02:29:39;8.50;99.90
46159;DHT22;31888;44.512;26.104;2023-05-10T02:32:05;8.50;99.90
46159;DHT22;31888;44.512;26.104;2023-05-10T02:34:30;8.50;99.90
46159;DHT22;31888;44.512;26.104;2023-05-10T02:36:56;8.60;99.90
46159;DHT22;31888;44.512;26.104;2023-05-10T02:39:22;8.60;99.90
46159;DHT22;31888;44.512;26.104;2023-05-10T02:41:49;8.70;99.90
46159;DHT22;31888;44.512;26.104;2023-05-10T02:44:16;8.70;99.90
46159;DHT22;31888;44.512;26.104;2023-05-10T02:46:42;8.80;99.90
46159;DHT22;31888;44.512;26.104;2023-05-10T02:49:06;8.80;99.90
46159;DHT22;31888;44.512;26.104;2023-05-10T02:51:32;8.80;99.90
46159;DHT22;31888;44.512;26.104;2023-05-10T02:54:03;8.90;99.90
46159;DHT22;31888;44.512;26.104;2023-05-10T02:56:33;8.90;99.90
46159;DHT22;31888;44.512;26.104;2023-05-10T02:58:58;8.90;99.90
46159;DHT22;31888;44.512;26.104;2023-05-10T03:01:23;8.80;99.90
46159;DHT22;31888;44.512;26.104;2023-05-10T03:03:47;8.80;99.90
46159;DHT22;31888;44.512;26.104;2023-05-10T03:06:12;8.90;99.90
46159;DHT22;31888;44.512;26.104;2023-05-10T03:08:36;8.90;99.90
46159;DHT22;31888;44.512;26.104;2023-05-10T03:11:22;9.00;99.90
46159;DHT22;31888;44.512;26.104;2023-05-10T03:14:07;9.00;99.90
46159;DHT22;31888;44.512;26.104;2023-05-10T03:16:39;9.00;99.90
46159;DHT22;31888;44.512;26.104;2023-05-10T03:19:14;9.00;99.90
46159;DHT22;31888;44.512;26.104;2023-05-10T03:21:42;9.10;99.90
46159;DHT22;31888;44.512;26.104;2023-05-10T03:24:09;9.10;99.90
46159;DHT22;31888;44.512;26.104;2023-05-10T03:26:37;9.10;99.90
46159;DHT22;31888;44.512;26.104;2023-05-10T03:29:08;9.20;99.90
46159;DHT22;31888;44.512;26.104;2023-05-10T03:31:34;9.20;99.90
46159;DHT22;31888;44.512;26.104;2023-05-10T03:33:58;9.30;99.90
46159;DHT22;31888;44.512;26.104;2023-05-10T03:36:23;9.30;99.90
46159;DHT22;31888;44.512;26.104;2023-05-10T03:38:47;9.40;99.90
46159;DHT22;31888;44.512;26.104;2023-05-10T03:41:13;9.40;99.90
46159;DHT22;31888;44.512;26.104;2023-05-10T03:43:37;9.40;99.90
46159;DHT22;31888;44.512;26.104;2023-05-10T03:46:04;9.30;99.90
46159;DHT22;31888;44.512;26.104;2023-05-10T03:48:29;9.20;99.90
46159;DHT22;31888;44.512;26.104;2023-05-10T03:50:53;9.10;99.90
46159;DHT22;31888;44.512;26.104;2023-05-10T03:53:18;9.10;99.90
46159;DHT22;31888;44.512;26.104;2023-05-10T03:55:44;9.10;99.90
46159;DHT22;31888;44.512;26.104;2023-05-10T03:58:11;9.10;99.90
46159;DHT22;31888;44.512;26.104;2023-05-10T04:00:35;9.10;99.90
46159;DHT22;31888;44.512;26.104;2023-05-10T04:03:01;9.10;99.90
46159;DHT22;31888;44.512;26.104;2023-05-10T04:05:26;9.20;99.90
46159;DHT22;31888;44.512;26.104;2023-05-10T04:07:51;9.20;99.90
46159;DHT22;31888;44.512;26.104;2023-05-10T04:10:16;9.20;99.90
46159;DHT22;31888;44.512;26.104;2023-05-10T04:12:41;9.20;99.90
46159;DHT22;31888;44.512;26.104;2023-05-10T04:15:06;9.20;99.90
46159;DHT22;31888;44.512;26.104;2023-05-10T04:17:31;9.30;99.90
46159;DHT22;31888;44.512;26.104;2023-05-10T04:19:57;9.40;99.90
46159;DHT22;31888;44.512;26.104;2023-05-10T04:22:21;9.40;99.90
46159;DHT22;31888;44.512;26.104;2023-05-10T04:24:46;9.40;99.90
46159;DHT22;31888;44.512;26.104;2023-05-10T04:27:12;9.50;99.90
46159;DHT22;31888;44.512;26.104;2023-05-10T04:29:37;9.40;99.90
46159;DHT22;31888;44.512;26.104;2023-05-10T04:32:01;9.50;99.90
46159;DHT22;31888;44.512;26.104;2023-05-10T04:34:26;9.50;99.90
46159;DHT22;31888;44.512;26.104;2023-05-10T04:36:52;9.50;99.90
46159;DHT22;31888;44.512;26.104;2023-05-10T04:39:17;9.50;99.90
46159;DHT22;31888;44.512;26.104;2023-05-10T04:41:42;9.50;99.90
46159;DHT22;31888;44.512;26.104;2023-05-10T04:44:06;9.60;99.90
46159;DHT22;31888;44.512;26.104;2023-05-10T04:46:30;9.60;99.90
46159;DHT22;31888;44.512;26.104;2023-05-10T04:48:55;9.70;99.90
46159;DHT22;31888;44.512;26.104;2023-05-10T04:51:19;9.70;99.90
46159;DHT22;31888;44.512;26.104;2023-05-10T04:53:45;9.70;99.90
46159;DHT22;31888;44.512;26.104;2023-05-10T04:56:26;9.80;99.90
46159;DHT22;31888;44.512;26.104;2023-05-10T04:58:51;9.90;99.90
46159;DHT22;31888;44.512;26.104;2023-05-10T05:01:15;10.00;99.90
46159;DHT22;31888;44.512;26.104;2023-05-10T05:03:40;10.00;99.90
46159;DHT22;31888;44.512;26.104;2023-05-10T05:06:06;10.10;99.90
46159;DHT22;31888;44.512;26.104;2023-05-10T05:08:30;10.20;99.90
46159;DHT22;31888;44.512;26.104;2023-05-10T05:10:56;10.20;99.90
46159;DHT22;31888;44.512;26.104;2023-05-10T05:13:22;10.20;99.90
46159;DHT22;31888;44.512;26.104;2023-05-10T05:15:46;10.20;99.90
46159;DHT22;31888;44.512;26.104;2023-05-10T05:18:11;10.40;99.90
46159;DHT22;31888;44.512;26.104;2023-05-10T05:20:35;10.50;99.90
46159;DHT22;31888;44.512;26.104;2023-05-10T05:23:00;10.50;99.90
46159;DHT22;31888;44.512;26.104;2023-05-10T05:25:24;10.60;99.90
46159;DHT22;31888;44.512;26.104;2023-05-10T05:27:50;10.60;99.90
46159;DHT22;31888;44.512;26.104;2023-05-10T05:30:15;10.50;99.90
46159;DHT22;31888;44.512;26.104;2023-05-10T05:32:40;10.60;99.90
46159;DHT22;31888;44.512;26.104;2023-05-10T05:35:05;10.50;99.90
46159;DHT22;31888;44.512;26.104;2023-05-10T05:37:29;10.60;99.90
46159;DHT22;31888;44.512;26.104;2023-05-10T05:39:54;10.50;99.90
46159;DHT22;31888;44.512;26.104;2023-05-10T05:42:18;10.40;99.90
46159;DHT22;31888;44.512;26.104;2023-05-10T05:44:46;10.50;99.90
46159;DHT22;31888;44.512;26.104;2023-05-10T05:47:10;10.60;99.90
46159;DHT22;31888;44.512;26.104;2023-05-10T05:49:35;10.70;99.90
46159;DHT22;31888;44.512;26.104;2023-05-10T05:52:00;10.80;99.90
46159;DHT22;31888;44.512;26.104;2023-05-10T05:54:27;10.90;99.90
46159;DHT22;31888;44.512;26.104;2023-05-10T05:56:54;11.00;99.90
46159;DHT22;31888;44.512;26.104;2023-05-10T05:59:20;11.10;99.90
46159;DHT22;31888;44.512;26.104;2023-05-10T06:01:45;11.10;99.90
46159;DHT22;31888;44.512;26.104;2023-05-10T06:04:10;11.20;99.90
46159;DHT22;31888;44.512;26.104;2023-05-10T06:06:36;11.30;99.90
46159;DHT22;31888;44.512;26.104;2023-05-10T06:09:01;11.50;99.90
46159;DHT22;31888;44.512;26.104;2023-05-10T06:11:26;11.50;99.90
46159;DHT22;31888;44.512;26.104;2023-05-10T06:13:50;11.50;99.90
46159;DHT22;31888;44.512;26.104;2023-05-10T06:16:15;11.80;99.90
46159;DHT22;31888;44.512;26.104;2023-05-10T06:18:41;11.80;99.90
46159;DHT22;31888;44.512;26.104;2023-05-10T06:21:05;11.90;99.90
46159;DHT22;31888;44.512;26.104;2023-05-10T06:23:31;12.00;99.90
46159;DHT22;31888;44.512;26.104;2023-05-10T06:25:56;12.10;99.90
46159;DHT22;31888;44.512;26.104;2023-05-10T06:28:21;12.00;99.90
46159;DHT22;31888;44.512;26.104;2023-05-10T06:30:47;12.10;99.90
46159;DHT22;31888;44.512;26.104;2023-05-10T06:33:12;12.30;99.90
46159;DHT22;31888;44.512;26.104;2023-05-10T06:35:38;12.60;99.90
46159;DHT22;31888;44.512;26.104;2023-05-10T06:38:02;12.70;99.90
46159;DHT22;31888;44.512;26.104;2023-05-10T06:40:27;12.70;99.90
46159;DHT22;31888;44.512;26.104;2023-05-10T06:42:52;13.10;99.90
46159;DHT22;31888;44.512;26.104;2023-05-10T06:45:17;13.40;99.90
46159;DHT22;31888;44.512;26.104;2023-05-10T06:47:42;13.60;99.90
46159;DHT22;31888;44.512;26.104;2023-05-10T06:50:08;13.70;99.90
46159;DHT22;31888;44.512;26.104;2023-05-10T06:52:34;13.60;99.90
46159;DHT22;31888;44.512;26.104;2023-05-10T06:54:59;13.60;99.90
46159;DHT22;31888;44.512;26.104;2023-05-10T06:57:43;13.90;99.90
46159;DHT22;31888;44.512;26.104;2023-05-10T07:00:08;14.20;99.20
46159;DHT22;31888;44.512;26.104;2023-05-10T07:02:45;14.20;99.00
46159;DHT22;31888;44.512;26.104;2023-05-10T07:05:10;14.10;99.00
46159;DHT22;31888;44.512;26.104;2023-05-10T07:07:38;14.30;98.70
46159;DHT22;31888;44.512;26.104;2023-05-10T07:10:09;14.40;98.40
46159;DHT22;31888;44.512;26.104;2023-05-10T07:12:42;14.50;98.30
46159;DHT22;31888;44.512;26.104;2023-05-10T07:15:11;15.00;98.80
46159;DHT22;31888;44.512;26.104;2023-05-10T07:17:41;15.10;97.40
46159;DHT22;31888;44.512;26.104;2023-05-10T07:20:09;14.90;97.40
46159;DHT22;31888;44.512;26.104;2023-05-10T07:22:34;14.70;97.60
46159;DHT22;31888;44.512;26.104;2023-05-10T07:25:17;15.00;97.10
46159;DHT22;31888;44.512;26.104;2023-05-10T07:27:43;15.10;96.90
46159;DHT22;31888;44.512;26.104;2023-05-10T07:30:08;14.90;95.70
46159;DHT22;31888;44.512;26.104;2023-05-10T07:32:40;14.80;96.50
46159;DHT22;31888;44.512;26.104;2023-05-10T07:35:05;15.10;97.20
46159;DHT22;31888;44.512;26.104;2023-05-10T07:37:34;15.20;96.10
46159;DHT22;31888;44.512;26.104;2023-05-10T07:40:02;15.20;96.00
46159;DHT22;31888;44.512;26.104;2023-05-10T07:42:28;15.30;95.30
46159;DHT22;31888;44.512;26.104;2023-05-10T07:44:53;15.30;94.40
46159;DHT22;31888;44.512;26.104;2023-05-10T07:47:18;15.20;94.70
46159;DHT22;31888;44.512;26.104;2023-05-10T07:49:45;15.40;93.80
46159;DHT22;31888;44.512;26.104;2023-05-10T07:52:13;15.10;94.00
46159;DHT22;31888;44.512;26.104;2023-05-10T07:54:38;15.20;95.10
46159;DHT22;31888;44.512;26.104;2023-05-10T07:57:03;15.40;94.90
46159;DHT22;31888;44.512;26.104;2023-05-10T07:59:29;15.70;93.70
46159;DHT22;31888;44.512;26.104;2023-05-10T08:01:55;15.90;93.60
46159;DHT22;31888;44.512;26.104;2023-05-10T08:04:20;16.20;93.50
46159;DHT22;31888;44.512;26.104;2023-05-10T08:06:45;16.10;93.40
46159;DHT22;31888;44.512;26.104;2023-05-10T08:09:10;16.10;93.90
46159;DHT22;31888;44.512;26.104;2023-05-10T08:11:36;16.00;94.00
46159;DHT22;31888;44.512;26.104;2023-05-10T08:14:01;16.00;93.40
46159;DHT22;31888;44.512;26.104;2023-05-10T08:16:27;16.50;93.10
46159;DHT22;31888;44.512;26.104;2023-05-10T08:18:52;16.80;91.90
46159;DHT22;31888;44.512;26.104;2023-05-10T08:21:18;16.40;91.80
46159;DHT22;31888;44.512;26.104;2023-05-10T08:23:43;16.10;91.40
46159;DHT22;31888;44.512;26.104;2023-05-10T08:26:10;16.20;92.00
46159;DHT22;31888;44.512;26.104;2023-05-10T08:28:34;16.20;92.10
46159;DHT22;31888;44.512;26.104;2023-05-10T08:31:02;16.40;90.90
46159;DHT22;31888;44.512;26.104;2023-05-10T08:33:29;16.20;91.70
46159;DHT22;31888;44.512;26.104;2023-05-10T08:35:53;16.20;90.30
46159;DHT22;31888;44.512;26.104;2023-05-10T08:38:22;16.50;91.60
46159;DHT22;31888;44.512;26.104;2023-05-10T08:40:54;16.20;92.40
46159;DHT22;31888;44.512;26.104;2023-05-10T08:43:29;15.90;92.60
46159;DHT22;31888;44.512;26.104;2023-05-10T08:45:54;15.60;93.40
46159;DHT22;31888;44.512;26.104;2023-05-10T08:48:24;15.60;93.70
46159;DHT22;31888;44.512;26.104;2023-05-10T08:50:53;15.90;92.80
46159;DHT22;31888;44.512;26.104;2023-05-10T08:53:19;15.80;92.80
46159;DHT22;31888;44.512;26.104;2023-05-10T08:55:44;15.50;93.10
46159;DHT22;31888;44.512;26.104;2023-05-10T08:58:09;15.70;93.10
46159;DHT22;31888;44.512;26.104;2023-05-10T09:00:35;16.10;92.90
46159;DHT22;31888;44.512;26.104;2023-05-10T09:03:04;16.20;92.40
46159;DHT22;31888;44.512;26.104;2023-05-10T09:05:30;16.10;92.00
46159;DHT22;31888;44.512;26.104;2023-05-10T09:08:09;15.90;92.20
46159;DHT22;31888;44.512;26.104;2023-05-10T09:10:38;16.00;92.70
46159;DHT22;31888;44.512;26.104;2023-05-10T09:13:06;16.40;91.80
46159;DHT22;31888;44.512;26.104;2023-05-10T09:15:32;16.80;91.00
46159;DHT22;31888;44.512;26.104;2023-05-10T09:18:08;17.00;90.30
46159;DHT22;31888;44.512;26.104;2023-05-10T09:20:40;17.30;90.50
46159;DHT22;31888;44.512;26.104;2023-05-10T09:23:09;16.80;90.90
46159;DHT22;31888;44.512;26.104;2023-05-10T09:25:36;16.40;91.30
46159;DHT22;31888;44.512;26.104;2023-05-10T09:28:08;16.40;91.70
46159;DHT22;31888;44.512;26.104;2023-05-10T09:30:37;16.40;91.80
46159;DHT22;31888;44.512;26.104;2023-05-10T09:33:06;16.10;92.40
46159;DHT22;31888;44.512;26.104;2023-05-10T09:35:32;15.80;92.60
46159;DHT22;31888;44.512;26.104;2023-05-10T09:38:04;15.80;92.30
46159;DHT22;31888;44.512;26.104;2023-05-10T09:40:31;15.70;93.10
46159;DHT22;31888;44.512;26.104;2023-05-10T09:42:57;15.50;93.00
46159;DHT22;31888;44.512;26.104;2023-05-10T09:45:24;15.50;93.60
46159;DHT22;31888;44.512;26.104;2023-05-10T09:47:53;15.50;93.30
46159;DHT22;31888;44.512;26.104;2023-05-10T09:50:29;15.50;93.40
46159;DHT22;31888;44.512;26.104;2023-05-10T09:52:57;15.50;93.30
46159;DHT22;31888;44.512;26.104;2023-05-10T09:55:25;15.60;93.30
46159;DHT22;31888;44.512;26.104;2023-05-10T09:58:00;15.60;93.20
46159;DHT22;31888;44.512;26.104;2023-05-10T10:00:26;15.40;93.40
46159;DHT22;31888;44.512;26.104;2023-05-10T10:02:55;15.30;93.50
46159;DHT22;31888;44.512;26.104;2023-05-10T10:05:20;15.20;93.20
46159;DHT22;31888;44.512;26.104;2023-05-10T10:07:47;15.20;93.30
46159;DHT22;31888;44.512;26.104;2023-05-10T10:10:17;15.30;93.50
46159;DHT22;31888;44.512;26.104;2023-05-10T10:12:43;15.30;93.80
46159;DHT22;31888;44.512;26.104;2023-05-10T10:15:14;15.30;93.90
46159;DHT22;31888;44.512;26.104;2023-05-10T10:17:44;15.30;94.00
46159;DHT22;31888;44.512;26.104;2023-05-10T10:20:10;15.30;93.70
46159;DHT22;31888;44.512;26.104;2023-05-10T10:22:35;15.30;93.00
46159;DHT22;31888;44.512;26.104;2023-05-10T10:25:01;15.20;93.40
46159;DHT22;31888;44.512;26.104;2023-05-10T10:27:32;15.20;93.40
46159;DHT22;31888;44.512;26.104;2023-05-10T10:30:04;15.30;93.30
46159;DHT22;31888;44.512;26.104;2023-05-10T10:32:42;15.40;93.30
46159;DHT22;31888;44.512;26.104;2023-05-10T10:35:12;15.50;92.90
46159;DHT22;31888;44.512;26.104;2023-05-10T10:37:44;15.70;93.00
46159;DHT22;31888;44.512;26.104;2023-05-10T10:40:26;15.80;92.80
46159;DHT22;31888;44.512;26.104;2023-05-10T10:42:51;15.80;92.70
46159;DHT22;31888;44.512;26.104;2023-05-10T10:45:16;15.80;92.20
46159;DHT22;31888;44.512;26.104;2023-05-10T10:47:44;16.00;91.90
46159;DHT22;31888;44.512;26.104;2023-05-10T10:50:09;16.00;91.70
46159;DHT22;31888;44.512;26.104;2023-05-10T10:52:36;16.10;91.80
46159;DHT22;31888;44.512;26.104;2023-05-10T10:55:03;16.20;91.90
46159;DHT22;31888;44.512;26.104;2023-05-10T10:57:33;16.20;91.20
46159;DHT22;31888;44.512;26.104;2023-05-10T11:00:23;16.30;91.30
46159;DHT22;31888;44.512;26.104;2023-05-10T11:02:52;16.50;91.60
46159;DHT22;31888;44.512;26.104;2023-05-10T11:05:34;16.50;90.00
46159;DHT22;31888;44.512;26.104;2023-05-10T11:08:15;16.70;90.30
46159;DHT22;31888;44.512;26.104;2023-05-10T11:10:48;16.80;90.20
46159;DHT22;31888;44.512;26.104;2023-05-10T11:13:15;16.70;90.10
46159;DHT22;31888;44.512;26.104;2023-05-10T11:15:49;16.80;90.70
46159;DHT22;31888;44.512;26.104;2023-05-10T11:18:20;16.80;89.50
46159;DHT22;31888;44.512;26.104;2023-05-10T11:20:50;16.70;89.70
46159;DHT22;31888;44.512;26.104;2023-05-10T11:23:16;16.60;90.30
46159;DHT22;31888;44.512;26.104;2023-05-10T11:25:47;16.60;88.80
46159;DHT22;31888;44.512;26.104;2023-05-10T11:28:13;16.70;89.80
46159;DHT22;31888;44.512;26.104;2023-05-10T11:30:39;16.80;89.40
46159;DHT22;31888;44.512;26.104;2023-05-10T11:33:16;16.90;89.30
46159;DHT22;31888;44.512;26.104;2023-05-10T11:35:50;16.80;88.70
46159;DHT22;31888;44.512;26.104;2023-05-10T11:38:21;16.70;89.00
46159;DHT22;31888;44.512;26.104;2023-05-10T11:40:46;16.70;88.90
46159;DHT22;31888;44.512;26.104;2023-05-10T11:43:12;16.70;88.70
46159;DHT22;31888;44.512;26.104;2023-05-10T11:45:37;16.60;89.20
46159;DHT22;31888;44.512;26.104;2023-05-10T11:48:04;16.60;88.90
46159;DHT22;31888;44.512;26.104;2023-05-10T11:50:29;16.40;89.20
46159;DHT22;31888;44.512;26.104;2023-05-10T11:52:57;16.60;89.20
46159;DHT22;31888;44.512;26.104;2023-05-10T11:55:23;16.40;89.10
46159;DHT22;31888;44.512;26.104;2023-05-10T11:57:51;16.60;90.00
46159;DHT22;31888;44.512;26.104;2023-05-10T12:00:17;16.90;90.00
46159;DHT22;31888;44.512;26.104;2023-05-10T12:02:51;16.90;88.40
46159;DHT22;31888;44.512;26.104;2023-05-10T12:05:20;16.90;88.70
46159;DHT22;31888;44.512;26.104;2023-05-10T12:07:46;17.00;88.90
46159;DHT22;31888;44.512;26.104;2023-05-10T12:10:13;17.20;89.70
46159;DHT22;31888;44.512;26.104;2023-05-10T12:12:44;17.10;89.90
46159;DHT22;31888;44.512;26.104;2023-05-10T12:15:12;17.10;88.40
46159;DHT22;31888;44.512;26.104;2023-05-10T12:17:37;17.10;88.60
46159;DHT22;31888;44.512;26.104;2023-05-10T12:20:18;17.10;89.60
46159;DHT22;31888;44.512;26.104;2023-05-10T12:22:45;17.00;88.10
46159;DHT22;31888;44.512;26.104;2023-05-10T12:25:14;16.60;87.70
46159;DHT22;31888;44.512;26.104;2023-05-10T12:27:39;16.30;87.30
46159;DHT22;31888;44.512;26.104;2023-05-10T12:30:05;16.40;88.30
46159;DHT22;31888;44.512;26.104;2023-05-10T12:32:40;16.60;87.20
46159;DHT22;31888;44.512;26.104;2023-05-10T12:35:11;16.70;88.40
46159;DHT22;31888;44.512;26.104;2023-05-10T12:37:36;16.80;86.90
46159;DHT22;31888;44.512;26.104;2023-05-10T12:40:10;16.80;85.80
46159;DHT22;31888;44.512;26.104;2023-05-10T12:42:36;16.80;85.20
46159;DHT22;31888;44.512;26.104;2023-05-10T12:45:05;17.00;85.00
46159;DHT22;31888;44.512;26.104;2023-05-10T12:47:35;17.00;85.50
46159;DHT22;31888;44.512;26.104;2023-05-10T12:50:00;16.90;84.60
46159;DHT22;31888;44.512;26.104;2023-05-10T12:52:26;16.80;83.90
46159;DHT22;31888;44.512;26.104;2023-05-10T12:54:51;16.70;83.60
46159;DHT22;31888;44.512;26.104;2023-05-10T12:57:16;16.50;82.90
46159;DHT22;31888;44.512;26.104;2023-05-10T12:59:42;16.40;84.70
46159;DHT22;31888;44.512;26.104;2023-05-10T13:02:09;16.40;85.50
46159;DHT22;31888;44.512;26.104;2023-05-10T13:04:34;16.30;85.00
46159;DHT22;31888;44.512;26.104;2023-05-10T13:07:00;16.40;85.20
46159;DHT22;31888;44.512;26.104;2023-05-10T13:09:30;16.40;86.20
46159;DHT22;31888;44.512;26.104;2023-05-10T13:11:55;16.40;85.50
46159;DHT22;31888;44.512;26.104;2023-05-10T13:14:24;16.50;86.90
46159;DHT22;31888;44.512;26.104;2023-05-10T13:17:17;16.50;85.50
46159;DHT22;31888;44.512;26.104;2023-05-10T13:19:45;16.60;86.40
46159;DHT22;31888;44.512;26.104;2023-05-10T13:22:10;16.80;86.00
46159;DHT22;31888;44.512;26.104;2023-05-10T13:24:35;17.00;86.10
46159;DHT22;31888;44.512;26.104;2023-05-10T13:27:00;17.00;85.80
46159;DHT22;31888;44.512;26.104;2023-05-10T13:29:28;17.10;87.40
46159;DHT22;31888;44.512;26.104;2023-05-10T13:31:53;17.20;87.00
46159;DHT22;31888;44.512;26.104;2023-05-10T13:34:22;17.20;87.20
46159;DHT22;31888;44.512;26.104;2023-05-10T13:36:47;17.30;86.90
46159;DHT22;31888;44.512;26.104;2023-05-10T13:39:12;17.30;87.60
46159;DHT22;31888;44.512;26.104;2023-05-10T13:41:37;17.40;87.20
46159;DHT22;31888;44.512;26.104;2023-05-10T13:44:02;17.30;87.30
46159;DHT22;31888;44.512;26.104;2023-05-10T13:46:29;16.90;86.30
46159;DHT22;31888;44.512;26.104;2023-05-10T13:48:54;16.70;88.10
46159;DHT22;31888;44.512;26.104;2023-05-10T13:51:21;16.50;86.50
46159;DHT22;31888;44.512;26.104;2023-05-10T13:53:46;16.30;86.90
46159;DHT22;31888;44.512;26.104;2023-05-10T13:56:27;16.40;87.60
46159;DHT22;31888;44.512;26.104;2023-05-10T13:58:51;16.40;87.20
46159;DHT22;31888;44.512;26.104;2023-05-10T14:01:31;16.40;87.40
46159;DHT22;31888;44.512;26.104;2023-05-10T14:03:56;16.30;88.10
46159;DHT22;31888;44.512;26.104;2023-05-10T14:06:22;16.30;88.40
46159;DHT22;31888;44.512;26.104;2023-05-10T14:08:50;16.30;84.80
46159;DHT22;31888;44.512;26.104;2023-05-10T14:11:15;16.30;85.50
46159;DHT22;31888;44.512;26.104;2023-05-10T14:13:40;16.40;85.10
46159;DHT22;31888;44.512;26.104;2023-05-10T14:16:06;16.40;86.30
46159;DHT22;31888;44.512;26.104;2023-05-10T14:18:33;16.20;85.70
46159;DHT22;31888;44.512;26.104;2023-05-10T14:20:58;16.20;86.20
46159;DHT22;31888;44.512;26.104;2023-05-10T14:23:25;16.20;86.50
46159;DHT22;31888;44.512;26.104;2023-05-10T14:25:52;16.30;87.50
46159;DHT22;31888;44.512;26.104;2023-05-10T14:28:17;16.30;85.60
46159;DHT22;31888;44.512;26.104;2023-05-10T14:30:44;16.30;84.60
46159;DHT22;31888;44.512;26.104;2023-05-10T14:33:10;16.30;85.10
46159;DHT22;31888;44.512;26.104;2023-05-10T14:35:34;16.20;85.00
46159;DHT22;31888;44.512;26.104;2023-05-10T14:37:59;16.20;84.80
46159;DHT22;31888;44.512;26.104;2023-05-10T14:40:28;16.20;85.40
46159;DHT22;31888;44.512;26.104;2023-05-10T14:42:53;16.20;85.30
46159;DHT22;31888;44.512;26.104;2023-05-10T14:45:19;16.20;85.00
46159;DHT22;31888;44.512;26.104;2023-05-10T14:47:45;16.20;84.90
46159;DHT22;31888;44.512;26.104;2023-05-10T14:50:13;16.20;85.30
46159;DHT22;31888;44.512;26.104;2023-05-10T14:53:00;16.20;84.90
46159;DHT22;31888;44.512;26.104;2023-05-10T14:55:29;16.20;85.00
46159;DHT22;31888;44.512;26.104;2023-05-10T14:57:53;16.20;85.80
46159;DHT22;31888;44.512;26.104;2023-05-10T15:00:19;16.20;85.30
46159;DHT22;31888;44.512;26.104;2023-05-10T15:02:44;16.20;85.90
46159;DHT22;31888;44.512;26.104;2023-05-10T15:05:10;16.20;85.70
46159;DHT22;31888;44.512;26.104;2023-05-10T15:07:36;16.30;86.10
46159;DHT22;31888;44.512;26.104;2023-05-10T15:10:01;16.40;84.40
46159;DHT22;31888;44.512;26.104;2023-05-10T15:12:27;16.30;82.70
46159;DHT22;31888;44.512;26.104;2023-05-10T15:14:52;16.40;82.50
46159;DHT22;31888;44.512;26.104;2023-05-10T15:17:16;16.40;82.40
46159;DHT22;31888;44.512;26.104;2023-05-10T15:19:41;16.40;82.40
46159;DHT22;31888;44.512;26.104;2023-05-10T15:22:06;16.40;81.50
46159;DHT22;31888;44.512;26.104;2023-05-10T15:24:31;16.30;81.60